Aviation Digital Data Service (ADDS)

Output produced by METARs form (1934 UTC 31 July 2014)
found at http://aviationweather.gov/adds/metars/
 
KLFT 311722Z 3118/0118 08004KT P6SM BKN250 
     FM312000 11005KT P6SM VCSH SCT050 BKN200 
     FM010100 00000KT P6SM SCT030 BKN150 
     FM011300 VRB03KT P6SM VCSH BKN040